sensor_id;sensor_type;location;lat;lon;timestamp;P1;durP1;ratioP1;P2;durP2;ratioP2
51738;SDS011;37815;52.692;6.226;2023-08-01T00:04:29;4.78;;;3.90;;
51738;SDS011;37815;52.692;6.226;2023-08-01T00:09:30;6.22;;;4.22;;
51738;SDS011;37815;52.692;6.226;2023-08-01T00:14:30;5.20;;;4.28;;
51738;SDS011;37815;52.692;6.226;2023-08-01T00:19:31;5.63;;;4.40;;
51738;SDS011;37815;52.692;6.226;2023-08-01T00:24:32;6.28;;;4.75;;
51738;SDS011;37815;52.692;6.226;2023-08-01T00:29:32;6.15;;;4.63;;
51738;SDS011;37815;52.692;6.226;2023-08-01T00:34:33;6.10;;;4.60;;
51738;SDS011;37815;52.692;6.226;2023-08-01T00:39:33;7.20;;;4.77;;
51738;SDS011;37815;52.692;6.226;2023-08-01T00:44:34;5.57;;;4.40;;
51738;SDS011;37815;52.692;6.226;2023-08-01T00:49:34;4.77;;;4.20;;
51738;SDS011;37815;52.692;6.226;2023-08-01T00:54:35;6.80;;;5.13;;
51738;SDS011;37815;52.692;6.226;2023-08-01T00:59:36;6.07;;;4.97;;
51738;SDS011;37815;52.692;6.226;2023-08-01T01:04:37;5.70;;;4.90;;
51738;SDS011;37815;52.692;6.226;2023-08-01T01:09:38;6.38;;;4.88;;
51738;SDS011;37815;52.692;6.226;2023-08-01T01:14:38;7.03;;;5.20;;
51738;SDS011;37815;52.692;6.226;2023-08-01T01:19:39;5.57;;;4.82;;
51738;SDS011;37815;52.692;6.226;2023-08-01T01:24:40;6.75;;;5.50;;
51738;SDS011;37815;52.692;6.226;2023-08-01T01:29:42;8.23;;;5.23;;
51738;SDS011;37815;52.692;6.226;2023-08-01T01:34:44;6.50;;;5.10;;
51738;SDS011;37815;52.692;6.226;2023-08-01T01:39:47;6.80;;;5.00;;
51738;SDS011;37815;52.692;6.226;2023-08-01T01:44:47;6.37;;;5.30;;
51738;SDS011;37815;52.692;6.226;2023-08-01T01:49:48;6.83;;;5.40;;
51738;SDS011;37815;52.692;6.226;2023-08-01T01:54:48;7.87;;;5.60;;
51738;SDS011;37815;52.692;6.226;2023-08-01T01:59:49;7.80;;;5.50;;
51738;SDS011;37815;52.692;6.226;2023-08-01T02:04:50;7.03;;;5.33;;
51738;SDS011;37815;52.692;6.226;2023-08-01T02:09:50;6.07;;;5.43;;
51738;SDS011;37815;52.692;6.226;2023-08-01T02:14:51;6.90;;;5.60;;
51738;SDS011;37815;52.692;6.226;2023-08-01T02:19:52;7.30;;;5.90;;
51738;SDS011;37815;52.692;6.226;2023-08-01T02:24:52;6.77;;;5.90;;
51738;SDS011;37815;52.692;6.226;2023-08-01T02:29:53;6.20;;;5.40;;
51738;SDS011;37815;52.692;6.226;2023-08-01T02:34:54;7.83;;;5.73;;
51738;SDS011;37815;52.692;6.226;2023-08-01T02:39:55;6.83;;;5.43;;
51738;SDS011;37815;52.692;6.226;2023-08-01T02:45:04;7.47;;;5.60;;
51738;SDS011;37815;52.692;6.226;2023-08-01T02:50:05;7.63;;;6.00;;
51738;SDS011;37815;52.692;6.226;2023-08-01T02:55:06;7.20;;;5.68;;
51738;SDS011;37815;52.692;6.226;2023-08-01T03:00:07;8.88;;;5.85;;
51738;SDS011;37815;52.692;6.226;2023-08-01T03:05:11;7.97;;;5.83;;
51738;SDS011;37815;52.692;6.226;2023-08-01T03:10:12;7.67;;;5.67;;
51738;SDS011;37815;52.692;6.226;2023-08-01T03:15:12;7.17;;;5.50;;
51738;SDS011;37815;52.692;6.226;2023-08-01T03:20:13;8.27;;;6.07;;
51738;SDS011;37815;52.692;6.226;2023-08-01T03:25:13;7.27;;;5.70;;
51738;SDS011;37815;52.692;6.226;2023-08-01T03:30:14;8.83;;;6.13;;
51738;SDS011;37815;52.692;6.226;2023-08-01T03:35:15;8.03;;;6.13;;
51738;SDS011;37815;52.692;6.226;2023-08-01T03:40:15;8.10;;;5.97;;
51738;SDS011;37815;52.692;6.226;2023-08-01T03:45:16;7.47;;;5.60;;
51738;SDS011;37815;52.692;6.226;2023-08-01T03:50:17;8.27;;;5.80;;
51738;SDS011;37815;52.692;6.226;2023-08-01T03:55:18;7.05;;;5.72;;
51738;SDS011;37815;52.692;6.226;2023-08-01T04:00:18;8.43;;;5.87;;
51738;SDS011;37815;52.692;6.226;2023-08-01T04:05:19;8.27;;;6.07;;
51738;SDS011;37815;52.692;6.226;2023-08-01T04:10:23;7.57;;;5.80;;
51738;SDS011;37815;52.692;6.226;2023-08-01T04:15:24;8.70;;;5.80;;
51738;SDS011;37815;52.692;6.226;2023-08-01T04:20:24;8.00;;;5.90;;
51738;SDS011;37815;52.692;6.226;2023-08-01T04:25:25;6.50;;;5.63;;
51738;SDS011;37815;52.692;6.226;2023-08-01T04:30:26;6.80;;;5.63;;
51738;SDS011;37815;52.692;6.226;2023-08-01T04:35:27;7.23;;;5.33;;
51738;SDS011;37815;52.692;6.226;2023-08-01T04:40:28;7.10;;;5.33;;
51738;SDS011;37815;52.692;6.226;2023-08-01T04:45:28;6.93;;;5.50;;
51738;SDS011;37815;52.692;6.226;2023-08-01T04:50:29;6.63;;;5.03;;
51738;SDS011;37815;52.692;6.226;2023-08-01T04:55:31;6.72;;;5.38;;
51738;SDS011;37815;52.692;6.226;2023-08-01T05:00:31;6.03;;;5.00;;
51738;SDS011;37815;52.692;6.226;2023-08-01T05:05:35;6.45;;;4.88;;
51738;SDS011;37815;52.692;6.226;2023-08-01T05:10:36;5.93;;;4.93;;
51738;SDS011;37815;52.692;6.226;2023-08-01T05:15:36;6.70;;;5.00;;
51738;SDS011;37815;52.692;6.226;2023-08-01T05:20:37;5.05;;;4.50;;
51738;SDS011;37815;52.692;6.226;2023-08-01T05:25:42;6.97;;;4.78;;
51738;SDS011;37815;52.692;6.226;2023-08-01T05:30:42;6.27;;;4.53;;
51738;SDS011;37815;52.692;6.226;2023-08-01T05:35:43;6.63;;;4.80;;
51738;SDS011;37815;52.692;6.226;2023-08-01T05:40:44;5.37;;;4.30;;
51738;SDS011;37815;52.692;6.226;2023-08-01T05:45:44;6.27;;;4.67;;
51738;SDS011;37815;52.692;6.226;2023-08-01T05:50:45;6.67;;;4.60;;
51738;SDS011;37815;52.692;6.226;2023-08-01T05:55:46;6.17;;;4.73;;
51738;SDS011;37815;52.692;6.226;2023-08-01T06:00:46;5.80;;;4.50;;
51738;SDS011;37815;52.692;6.226;2023-08-01T06:05:47;5.10;;;4.37;;
51738;SDS011;37815;52.692;6.226;2023-08-01T06:10:48;5.43;;;4.53;;
51738;SDS011;37815;52.692;6.226;2023-08-01T06:15:48;5.67;;;4.40;;
51738;SDS011;37815;52.692;6.226;2023-08-01T06:20:49;8.82;;;4.05;;
51738;SDS011;37815;52.692;6.226;2023-08-01T06:25:50;5.35;;;3.78;;
51738;SDS011;37815;52.692;6.226;2023-08-01T06:30:50;5.80;;;3.85;;
51738;SDS011;37815;52.692;6.226;2023-08-01T06:35:51;6.28;;;3.70;;
51738;SDS011;37815;52.692;6.226;2023-08-01T06:40:51;5.18;;;3.63;;
51738;SDS011;37815;52.692;6.226;2023-08-01T06:45:52;6.88;;;3.70;;
51738;SDS011;37815;52.692;6.226;2023-08-01T06:50:53;5.18;;;3.40;;
51738;SDS011;37815;52.692;6.226;2023-08-01T06:55:53;4.95;;;3.60;;
51738;SDS011;37815;52.692;6.226;2023-08-01T07:00:54;5.57;;;3.30;;
51738;SDS011;37815;52.692;6.226;2023-08-01T07:05:55;5.35;;;3.40;;
51738;SDS011;37815;52.692;6.226;2023-08-01T07:10:55;4.13;;;3.38;;
51738;SDS011;37815;52.692;6.226;2023-08-01T07:15:56;6.03;;;3.63;;
51738;SDS011;37815;52.692;6.226;2023-08-01T07:21:00;4.65;;;3.22;;
51738;SDS011;37815;52.692;6.226;2023-08-01T07:26:02;5.23;;;3.27;;
51738;SDS011;37815;52.692;6.226;2023-08-01T07:31:03;4.87;;;3.50;;
51738;SDS011;37815;52.692;6.226;2023-08-01T07:36:05;4.53;;;3.28;;
51738;SDS011;37815;52.692;6.226;2023-08-01T07:41:06;5.70;;;3.60;;
51738;SDS011;37815;52.692;6.226;2023-08-01T07:46:07;4.47;;;3.50;;
51738;SDS011;37815;52.692;6.226;2023-08-01T07:51:09;4.97;;;3.40;;
51738;SDS011;37815;52.692;6.226;2023-08-01T07:56:11;7.03;;;3.73;;
51738;SDS011;37815;52.692;6.226;2023-08-01T08:01:12;7.47;;;3.30;;
51738;SDS011;37815;52.692;6.226;2023-08-01T08:06:12;5.47;;;3.10;;
51738;SDS011;37815;52.692;6.226;2023-08-01T08:11:13;5.07;;;3.50;;
51738;SDS011;37815;52.692;6.226;2023-08-01T08:16:16;5.80;;;3.50;;
51738;SDS011;37815;52.692;6.226;2023-08-01T08:21:16;5.63;;;3.28;;
51738;SDS011;37815;52.692;6.226;2023-08-01T08:26:17;4.82;;;3.42;;
51738;SDS011;37815;52.692;6.226;2023-08-01T08:31:17;5.28;;;3.47;;
51738;SDS011;37815;52.692;6.226;2023-08-01T08:36:18;5.97;;;3.50;;
51738;SDS011;37815;52.692;6.226;2023-08-01T08:41:23;5.07;;;3.25;;
51738;SDS011;37815;52.692;6.226;2023-08-01T08:46:28;5.22;;;3.25;;
51738;SDS011;37815;52.692;6.226;2023-08-01T08:51:30;5.57;;;3.33;;
51738;SDS011;37815;52.692;6.226;2023-08-01T08:56:31;5.53;;;3.70;;
51738;SDS011;37815;52.692;6.226;2023-08-01T09:01:34;6.20;;;3.60;;
51738;SDS011;37815;52.692;6.226;2023-08-01T09:06:35;7.43;;;3.70;;
51738;SDS011;37815;52.692;6.226;2023-08-01T09:11:45;6.57;;;3.58;;
51738;SDS011;37815;52.692;6.226;2023-08-01T09:16:47;5.60;;;3.60;;
51738;SDS011;37815;52.692;6.226;2023-08-01T09:21:47;5.30;;;3.63;;
51738;SDS011;37815;52.692;6.226;2023-08-01T09:26:48;7.13;;;4.05;;
51738;SDS011;37815;52.692;6.226;2023-08-01T09:31:50;5.60;;;3.80;;
51738;SDS011;37815;52.692;6.226;2023-08-01T09:36:51;4.90;;;3.45;;
51738;SDS011;37815;52.692;6.226;2023-08-01T09:42:01;6.03;;;3.80;;
51738;SDS011;37815;52.692;6.226;2023-08-01T09:47:03;7.40;;;3.87;;
51738;SDS011;37815;52.692;6.226;2023-08-01T09:52:04;6.38;;;4.05;;
51738;SDS011;37815;52.692;6.226;2023-08-01T09:57:05;5.93;;;3.90;;
51738;SDS011;37815;52.692;6.226;2023-08-01T10:02:07;5.83;;;3.80;;
51738;SDS011;37815;52.692;6.226;2023-08-01T10:07:13;5.40;;;4.25;;
51738;SDS011;37815;52.692;6.226;2023-08-01T10:12:17;6.53;;;4.27;;
51738;SDS011;37815;52.692;6.226;2023-08-01T10:17:19;7.97;;;4.20;;
51738;SDS011;37815;52.692;6.226;2023-08-01T10:22:22;6.50;;;4.18;;
51738;SDS011;37815;52.692;6.226;2023-08-01T10:27:23;5.70;;;4.25;;
51738;SDS011;37815;52.692;6.226;2023-08-01T10:32:28;5.70;;;3.88;;
51738;SDS011;37815;52.692;6.226;2023-08-01T10:37:40;5.70;;;3.77;;
51738;SDS011;37815;52.692;6.226;2023-08-01T10:42:45;5.10;;;3.70;;
51738;SDS011;37815;52.692;6.226;2023-08-01T10:47:47;6.57;;;4.28;;
51738;SDS011;37815;52.692;6.226;2023-08-01T10:52:51;5.70;;;4.10;;
51738;SDS011;37815;52.692;6.226;2023-08-01T10:58:03;5.35;;;3.60;;
51738;SDS011;37815;52.692;6.226;2023-08-01T11:03:04;5.90;;;4.10;;
51738;SDS011;37815;52.692;6.226;2023-08-01T11:08:05;7.18;;;4.10;;
51738;SDS011;37815;52.692;6.226;2023-08-01T11:13:11;6.05;;;3.97;;
51738;SDS011;37815;52.692;6.226;2023-08-01T11:18:12;5.50;;;4.00;;
51738;SDS011;37815;52.692;6.226;2023-08-01T11:23:13;6.60;;;4.10;;
51738;SDS011;37815;52.692;6.226;2023-08-01T11:28:15;7.40;;;4.40;;
51738;SDS011;37815;52.692;6.226;2023-08-01T11:33:18;6.85;;;3.88;;
51738;SDS011;37815;52.692;6.226;2023-08-01T11:38:21;6.35;;;4.00;;
51738;SDS011;37815;52.692;6.226;2023-08-01T11:43:23;7.00;;;4.20;;
51738;SDS011;37815;52.692;6.226;2023-08-01T11:48:24;5.97;;;3.83;;
51738;SDS011;37815;52.692;6.226;2023-08-01T11:53:25;5.78;;;3.83;;
51738;SDS011;37815;52.692;6.226;2023-08-01T12:03:30;6.15;;;3.58;;
51738;SDS011;37815;52.692;6.226;2023-08-01T12:08:31;6.32;;;3.90;;
51738;SDS011;37815;52.692;6.226;2023-08-01T12:13:35;5.95;;;3.70;;
51738;SDS011;37815;52.692;6.226;2023-08-01T12:18:35;6.18;;;3.90;;
51738;SDS011;37815;52.692;6.226;2023-08-01T12:23:37;7.05;;;3.80;;
51738;SDS011;37815;52.692;6.226;2023-08-01T12:28:38;5.65;;;3.20;;
51738;SDS011;37815;52.692;6.226;2023-08-01T12:33:38;5.40;;;3.58;;
51738;SDS011;37815;52.692;6.226;2023-08-01T12:38:39;4.80;;;3.67;;
51738;SDS011;37815;52.692;6.226;2023-08-01T12:43:39;5.43;;;3.63;;
51738;SDS011;37815;52.692;6.226;2023-08-01T12:48:40;6.20;;;4.00;;
51738;SDS011;37815;52.692;6.226;2023-08-01T12:53:41;6.20;;;3.67;;
51738;SDS011;37815;52.692;6.226;2023-08-01T12:58:43;5.97;;;3.90;;
51738;SDS011;37815;52.692;6.226;2023-08-01T13:03:43;5.45;;;3.70;;
51738;SDS011;37815;52.692;6.226;2023-08-01T13:08:44;5.60;;;3.43;;
51738;SDS011;37815;52.692;6.226;2023-08-01T13:13:44;5.93;;;3.57;;
51738;SDS011;37815;52.692;6.226;2023-08-01T13:18:46;5.53;;;3.50;;
51738;SDS011;37815;52.692;6.226;2023-08-01T13:23:48;5.43;;;3.47;;
51738;SDS011;37815;52.692;6.226;2023-08-01T13:28:48;4.70;;;3.30;;
51738;SDS011;37815;52.692;6.226;2023-08-01T13:33:49;5.78;;;3.78;;
51738;SDS011;37815;52.692;6.226;2023-08-01T13:38:50;4.82;;;3.45;;
51738;SDS011;37815;52.692;6.226;2023-08-01T13:43:50;4.57;;;3.35;;
51738;SDS011;37815;52.692;6.226;2023-08-01T13:48:51;5.47;;;3.43;;
51738;SDS011;37815;52.692;6.226;2023-08-01T13:53:52;5.05;;;3.15;;
51738;SDS011;37815;52.692;6.226;2023-08-01T13:58:52;3.67;;;2.97;;
51738;SDS011;37815;52.692;6.226;2023-08-01T14:03:53;4.93;;;3.40;;
51738;SDS011;37815;52.692;6.226;2023-08-01T14:08:54;6.10;;;3.15;;
51738;SDS011;37815;52.692;6.226;2023-08-01T14:13:54;4.45;;;2.42;;
51738;SDS011;37815;52.692;6.226;2023-08-01T14:18:55;5.60;;;2.60;;
51738;SDS011;37815;52.692;6.226;2023-08-01T14:23:55;3.13;;;2.40;;
51738;SDS011;37815;52.692;6.226;2023-08-01T14:28:56;4.38;;;2.35;;
51738;SDS011;37815;52.692;6.226;2023-08-01T14:33:57;4.13;;;1.80;;
51738;SDS011;37815;52.692;6.226;2023-08-01T14:38:57;4.50;;;2.23;;
51738;SDS011;37815;52.692;6.226;2023-08-01T14:43:58;2.73;;;1.93;;
51738;SDS011;37815;52.692;6.226;2023-08-01T14:48:59;4.87;;;2.20;;
51738;SDS011;37815;52.692;6.226;2023-08-01T14:53:59;3.50;;;2.10;;
51738;SDS011;37815;52.692;6.226;2023-08-01T14:59:00;3.50;;;1.83;;
51738;SDS011;37815;52.692;6.226;2023-08-01T15:04:00;2.63;;;1.80;;
51738;SDS011;37815;52.692;6.226;2023-08-01T15:09:01;3.23;;;2.00;;
51738;SDS011;37815;52.692;6.226;2023-08-01T15:14:02;3.30;;;1.80;;
51738;SDS011;37815;52.692;6.226;2023-08-01T15:19:02;2.93;;;1.77;;
51738;SDS011;37815;52.692;6.226;2023-08-01T15:24:03;5.83;;;1.97;;
51738;SDS011;37815;52.692;6.226;2023-08-01T15:29:04;3.20;;;1.80;;
51738;SDS011;37815;52.692;6.226;2023-08-01T15:34:04;4.47;;;2.03;;
51738;SDS011;37815;52.692;6.226;2023-08-01T15:39:05;5.27;;;2.03;;
51738;SDS011;37815;52.692;6.226;2023-08-01T15:44:05;4.17;;;1.90;;
51738;SDS011;37815;52.692;6.226;2023-08-01T15:49:06;4.03;;;2.03;;
51738;SDS011;37815;52.692;6.226;2023-08-01T15:54:07;4.83;;;1.90;;
51738;SDS011;37815;52.692;6.226;2023-08-01T15:59:08;4.60;;;2.10;;
51738;SDS011;37815;52.692;6.226;2023-08-01T16:04:09;4.50;;;1.60;;
51738;SDS011;37815;52.692;6.226;2023-08-01T16:09:10;4.38;;;1.70;;
51738;SDS011;37815;52.692;6.226;2023-08-01T16:14:10;4.78;;;1.83;;
51738;SDS011;37815;52.692;6.226;2023-08-01T16:19:11;4.57;;;2.17;;
51738;SDS011;37815;52.692;6.226;2023-08-01T16:24:12;4.68;;;1.70;;
51738;SDS011;37815;52.692;6.226;2023-08-01T16:29:13;4.40;;;1.90;;
51738;SDS011;37815;52.692;6.226;2023-08-01T16:34:13;5.50;;;2.00;;
51738;SDS011;37815;52.692;6.226;2023-08-01T16:39:18;5.30;;;1.90;;
51738;SDS011;37815;52.692;6.226;2023-08-01T16:44:19;4.60;;;2.10;;
51738;SDS011;37815;52.692;6.226;2023-08-01T16:49:20;4.13;;;1.77;;
51738;SDS011;37815;52.692;6.226;2023-08-01T16:54:20;6.10;;;2.10;;
51738;SDS011;37815;52.692;6.226;2023-08-01T16:59:21;4.40;;;2.50;;
51738;SDS011;37815;52.692;6.226;2023-08-01T17:04:21;4.37;;;1.90;;
51738;SDS011;37815;52.692;6.226;2023-08-01T17:09:22;6.20;;;2.07;;
51738;SDS011;37815;52.692;6.226;2023-08-01T17:14:23;3.57;;;2.00;;
51738;SDS011;37815;52.692;6.226;2023-08-01T17:19:24;3.35;;;2.20;;
51738;SDS011;37815;52.692;6.226;2023-08-01T17:24:24;3.35;;;2.20;;
51738;SDS011;37815;52.692;6.226;2023-08-01T17:29:25;5.30;;;2.13;;
51738;SDS011;37815;52.692;6.226;2023-08-01T17:34:26;2.50;;;1.83;;
51738;SDS011;37815;52.692;6.226;2023-08-01T17:39:26;5.40;;;2.70;;
51738;SDS011;37815;52.692;6.226;2023-08-01T17:44:27;4.00;;;2.00;;
51738;SDS011;37815;52.692;6.226;2023-08-01T17:49:28;4.47;;;2.38;;
51738;SDS011;37815;52.692;6.226;2023-08-01T17:54:29;3.47;;;2.13;;
51738;SDS011;37815;52.692;6.226;2023-08-01T17:59:30;4.83;;;2.23;;
51738;SDS011;37815;52.692;6.226;2023-08-01T18:04:30;4.07;;;2.33;;
51738;SDS011;37815;52.692;6.226;2023-08-01T18:09:34;5.00;;;2.20;;
51738;SDS011;37815;52.692;6.226;2023-08-01T18:14:35;4.70;;;2.33;;
51738;SDS011;37815;52.692;6.226;2023-08-01T18:19:35;4.13;;;2.67;;
51738;SDS011;37815;52.692;6.226;2023-08-01T18:24:36;5.00;;;2.50;;
51738;SDS011;37815;52.692;6.226;2023-08-01T18:29:37;4.13;;;2.20;;
51738;SDS011;37815;52.692;6.226;2023-08-01T18:34:37;2.70;;;2.30;;
51738;SDS011;37815;52.692;6.226;2023-08-01T18:39:38;4.80;;;2.67;;
51738;SDS011;37815;52.692;6.226;2023-08-01T18:44:38;5.20;;;3.30;;
51738;SDS011;37815;52.692;6.226;2023-08-01T18:49:39;4.33;;;2.67;;
51738;SDS011;37815;52.692;6.226;2023-08-01T18:54:40;4.60;;;3.03;;
51738;SDS011;37815;52.692;6.226;2023-08-01T18:59:40;3.58;;;2.22;;
51738;SDS011;37815;52.692;6.226;2023-08-01T19:04:41;4.28;;;2.58;;
51738;SDS011;37815;52.692;6.226;2023-08-01T19:09:41;5.55;;;3.00;;
51738;SDS011;37815;52.692;6.226;2023-08-01T19:14:42;4.70;;;2.72;;
51738;SDS011;37815;52.692;6.226;2023-08-01T19:19:43;4.17;;;2.70;;
51738;SDS011;37815;52.692;6.226;2023-08-01T19:24:44;3.90;;;2.70;;
51738;SDS011;37815;52.692;6.226;2023-08-01T19:29:51;3.20;;;2.63;;
51738;SDS011;37815;52.692;6.226;2023-08-01T19:34:52;4.03;;;2.40;;
51738;SDS011;37815;52.692;6.226;2023-08-01T19:39:53;4.07;;;2.50;;
51738;SDS011;37815;52.692;6.226;2023-08-01T19:44:54;4.97;;;2.77;;
51738;SDS011;37815;52.692;6.226;2023-08-01T19:49:55;4.17;;;3.20;;
51738;SDS011;37815;52.692;6.226;2023-08-01T19:54:55;5.00;;;2.80;;
51738;SDS011;37815;52.692;6.226;2023-08-01T19:59:56;4.83;;;2.90;;
51738;SDS011;37815;52.692;6.226;2023-08-01T20:04:57;3.90;;;2.50;;
51738;SDS011;37815;52.692;6.226;2023-08-01T20:09:57;4.23;;;2.70;;
51738;SDS011;37815;52.692;6.226;2023-08-01T20:14:58;4.63;;;2.90;;
51738;SDS011;37815;52.692;6.226;2023-08-01T20:20:01;4.53;;;3.20;;
51738;SDS011;37815;52.692;6.226;2023-08-01T20:25:01;5.70;;;3.50;;
51738;SDS011;37815;52.692;6.226;2023-08-01T20:30:02;6.23;;;4.13;;
51738;SDS011;37815;52.692;6.226;2023-08-01T20:35:03;7.00;;;4.40;;
51738;SDS011;37815;52.692;6.226;2023-08-01T20:40:04;5.75;;;3.65;;
51738;SDS011;37815;52.692;6.226;2023-08-01T20:45:06;7.30;;;4.72;;
51738;SDS011;37815;52.692;6.226;2023-08-01T20:50:08;6.90;;;4.77;;
51738;SDS011;37815;52.692;6.226;2023-08-01T20:55:08;5.80;;;3.73;;
51738;SDS011;37815;52.692;6.226;2023-08-01T21:00:09;7.70;;;4.97;;
51738;SDS011;37815;52.692;6.226;2023-08-01T21:05:13;7.30;;;4.68;;
51738;SDS011;37815;52.692;6.226;2023-08-01T21:10:14;6.18;;;3.95;;
51738;SDS011;37815;52.692;6.226;2023-08-01T21:15:14;5.13;;;3.88;;
51738;SDS011;37815;52.692;6.226;2023-08-01T21:20:16;5.45;;;3.50;;
51738;SDS011;37815;52.692;6.226;2023-08-01T21:25:17;5.73;;;3.60;;
51738;SDS011;37815;52.692;6.226;2023-08-01T21:30:18;5.50;;;3.63;;
51738;SDS011;37815;52.692;6.226;2023-08-01T21:35:18;5.57;;;3.90;;
51738;SDS011;37815;52.692;6.226;2023-08-01T21:40:19;4.67;;;3.67;;
51738;SDS011;37815;52.692;6.226;2023-08-01T21:45:19;6.13;;;3.40;;
51738;SDS011;37815;52.692;6.226;2023-08-01T21:50:20;5.93;;;4.40;;
51738;SDS011;37815;52.692;6.226;2023-08-01T21:55:21;6.00;;;3.73;;
51738;SDS011;37815;52.692;6.226;2023-08-01T22:00:22;4.43;;;3.43;;
51738;SDS011;37815;52.692;6.226;2023-08-01T22:05:23;6.03;;;3.70;;
51738;SDS011;37815;52.692;6.226;2023-08-01T22:10:23;3.97;;;3.20;;
51738;SDS011;37815;52.692;6.226;2023-08-01T22:15:26;5.13;;;3.50;;
51738;SDS011;37815;52.692;6.226;2023-08-01T22:20:28;4.45;;;3.20;;
51738;SDS011;37815;52.692;6.226;2023-08-01T22:25:29;5.32;;;3.50;;
51738;SDS011;37815;52.692;6.226;2023-08-01T22:30:30;5.03;;;3.60;;
51738;SDS011;37815;52.692;6.226;2023-08-01T22:35:31;5.60;;;3.47;;
51738;SDS011;37815;52.692;6.226;2023-08-01T22:40:31;4.27;;;3.57;;
51738;SDS011;37815;52.692;6.226;2023-08-01T22:45:32;4.23;;;3.20;;
51738;SDS011;37815;52.692;6.226;2023-08-01T22:50:32;4.38;;;3.40;;
51738;SDS011;37815;52.692;6.226;2023-08-01T22:55:33;5.10;;;3.50;;
51738;SDS011;37815;52.692;6.226;2023-08-01T23:00:35;4.28;;;3.25;;
51738;SDS011;37815;52.692;6.226;2023-08-01T23:05:36;5.73;;;3.10;;
51738;SDS011;37815;52.692;6.226;2023-08-01T23:10:36;4.17;;;3.27;;
51738;SDS011;37815;52.692;6.226;2023-08-01T23:15:37;5.07;;;3.40;;
51738;SDS011;37815;52.692;6.226;2023-08-01T23:20:37;3.65;;;2.92;;
51738;SDS011;37815;52.692;6.226;2023-08-01T23:25:38;4.47;;;3.28;;
51738;SDS011;37815;52.692;6.226;2023-08-01T23:30:39;5.70;;;3.45;;
51738;SDS011;37815;52.692;6.226;2023-08-01T23:35:41;4.35;;;3.22;;
51738;SDS011;37815;52.692;6.226;2023-08-01T23:40:42;4.22;;;3.15;;
51738;SDS011;37815;52.692;6.226;2023-08-01T23:45:50;4.97;;;3.33;;
51738;SDS011;37815;52.692;6.226;2023-08-01T23:50:53;5.20;;;3.25;;
51738;SDS011;37815;52.692;6.226;2023-08-01T23:55:58;4.32;;;3.20;;
